Terminal Aerodrome Forecast
Issued by NWS Charleston, WV

Current Version | Previous Version | Graphics & Text | Print | Product List | Glossary On
Versions: 1 2 3 4 5 6 7 8 9 10 11 12 13 14 15 16 17 18 19 20 21 22 23 24
000
FTUS41 KRLX 222340
TAFEKN
TAF
KEKN 222340Z 2300/2324 33004KT P6SM SHRA SCT020 OVC040
     FM230400 00000KT 6SM BR VCSH SCT010 BKN020
     FM230500 00000KT 3SM BR BKN007
     FM230700 00000KT 1SM BR BKN001 OVC006
     FM231230 00000KT 3SM BR SCT001 BKN010
     FM231400 VRB03KT P6SM BKN015
     FM231700 34004KT P6SM BKN035
     FM231900 34006KT P6SM VCSH BKN040=

USA.gov is the U.S. government's official web portal to all federal, state and local government web resources and services.